Time;durP1;ratioP1;P1;durP2;ratioP2;P2;SDS_P1;SDS_P2;PMS_P1;PMS_P2;Temp;Humidity;BMP_temperature;BMP_pressure;BME280_temperature;BME280_humidity;BME280_pressure;Samples;Min_cycle;Max_cycle;Signal;HPM_P1;HPM_P2
2020/12/05 00:00:01;;;;;;;5.63;4.85;;;9.70;92.60;;;;;;4948484;29;20625;-28
2020/12/05 00:02:31;;;;;;;6.40;5.15;;;9.70;93.00;;;;;;4950978;28;20217;-24
2020/12/05 00:05:03;;;;;;;6.68;5.63;;;9.60;92.70;;;;;;4949988;28;20224;-24
2020/12/05 00:07:33;;;;;;;5.43;4.93;;;9.60;92.50;;;;;;4950954;28;20198;-24
2020/12/05 00:10:03;;;;;;;5.40;4.90;;;9.50;92.80;;;;;;4950631;28;20676;-23
2020/12/05 00:12:33;;;;;;;6.57;5.30;;;9.50;92.30;;;;;;4950731;28;20309;-24
2020/12/05 00:15:04;;;;;;;5.95;5.38;;;9.40;92.60;;;;;;4950977;28;20213;-24
2020/12/05 00:17:34;;;;;;;8.93;5.47;;;9.40;92.60;;;;;;4950454;28;20200;-24
2020/12/05 00:20:06;;;;;;;8.45;5.97;;;9.20;93.40;;;;;;4950439;28;20201;-24
2020/12/05 00:22:36;;;;;;;5.85;5.35;;;9.00;94.70;;;;;;4950253;28;20490;-24
2020/12/05 00:25:06;;;;;;;5.90;5.32;;;9.00;94.10;;;;;;4950374;28;20240;-24
2020/12/05 00:27:36;;;;;;;5.13;4.60;;;9.00;95.80;;;;;;4950441;28;20633;-24
2020/12/05 00:30:07;;;;;;;7.50;5.63;;;8.80;97.60;;;;;;4950739;28;20197;-24
2020/12/05 00:32:37;;;;;;;6.05;5.45;;;8.60;96.60;;;;;;4950538;28;20190;-23
2020/12/05 00:35:08;;;;;;;6.22;5.30;;;8.60;94.80;;;;;;4949748;29;20232;-23
2020/12/05 00:37:39;;;;;;;6.20;5.60;;;8.70;95.20;;;;;;4946658;28;20456;-24
2020/12/05 00:40:09;;;;;;;7.60;5.70;;;8.60;94.90;;;;;;4950507;28;20201;-24
2020/12/05 00:42:39;;;;;;;6.07;5.50;;;8.60;95.30;;;;;;4950824;28;20674;-25
2020/12/05 00:45:10;;;;;;;6.35;5.75;;;8.50;94.70;;;;;;4949898;28;20253;-24
2020/12/05 00:47:40;;;;;;;9.15;6.18;;;8.40;94.70;;;;;;4927956;28;20237;-24
2020/12/05 00:50:14;;;;;;;6.70;6.07;;;8.40;94.80;;;;;;4930032;29;20198;-24
2020/12/05 00:52:45;;;;;;;6.32;5.75;;;8.30;94.80;;;;;;4931824;29;20213;-24
2020/12/05 00:55:15;;;;;;;7.00;6.38;;;8.20;95.40;;;;;;4931535;29;20197;-24
2020/12/05 00:57:45;;;;;;;8.52;6.30;;;8.20;95.80;;;;;;4927083;29;20265;-24
2020/12/05 01:00:16;;;;;;;8.27;6.80;;;8.10;95.80;;;;;;4930738;29;20257;-24
2020/12/05 01:02:46;;;;;;;6.78;6.13;;;8.00;95.80;;;;;;4933042;29;20580;-24
2020/12/05 01:05:18;;;;;;;8.07;7.22;;;7.90;95.80;;;;;;4935130;29;20214;-24
2020/12/05 01:07:48;;;;;;;6.68;6.05;;;7.90;96.60;;;;;;4935210;29;20227;-23
2020/12/05 01:10:18;;;;;;;8.38;6.68;;;7.80;97.20;;;;;;4935601;29;20202;-23
2020/12/05 01:12:48;;;;;;;7.00;6.30;;;7.80;97.10;;;;;;4935196;29;20213;-24
2020/12/05 01:15:18;;;;;;;7.35;6.65;;;7.70;97.20;;;;;;4935479;29;20728;-24
2020/12/05 01:17:48;;;;;;;7.50;6.70;;;7.70;97.10;;;;;;4926651;29;20264;-24
2020/12/05 01:20:20;;;;;;;9.93;6.75;;;7.60;97.40;;;;;;4934414;29;20210;-24
2020/12/05 01:22:50;;;;;;;8.40;7.60;;;7.50;97.30;;;;;;4935159;29;20335;-25
2020/12/05 01:25:20;;;;;;;9.50;8.50;;;7.50;97.50;;;;;;4934844;29;20721;-25
2020/12/05 01:27:50;;;;;;;8.70;7.00;;;7.50;97.60;;;;;;4934622;29;20210;-24
2020/12/05 01:30:20;;;;;;;8.38;7.05;;;7.50;98.20;;;;;;4934420;29;20225;-24
2020/12/05 01:32:50;;;;;;;9.75;8.25;;;7.40;97.80;;;;;;4933982;29;20213;-24
2020/12/05 01:35:22;;;;;;;11.18;7.45;;;7.30;98.20;;;;;;4934653;29;20218;-24
2020/12/05 01:37:52;;;;;;;8.82;7.93;;;7.30;98.30;;;;;;4934616;29;20202;-24
2020/12/05 01:40:22;;;;;;;9.00;7.65;;;7.30;98.70;;;;;;4935162;29;20206;-24
2020/12/05 01:42:53;;;;;;;9.02;8.13;;;7.20;98.90;;;;;;4935764;29;20544;-24
2020/12/05 01:45:23;;;;;;;9.68;7.50;;;7.20;99.10;;;;;;4934224;29;20224;-24
2020/12/05 01:47:53;;;;;;;9.43;8.38;;;7.10;99.30;;;;;;4933873;28;20277;-24
2020/12/05 01:50:25;;;;;;;8.98;7.95;;;7.10;99.90;;;;;;4934678;29;20640;-24
2020/12/05 01:53:00;;;;;;;7.72;6.75;;;7.00;99.90;;;;;;4934970;29;20270;-24
2020/12/05 01:55:30;;;;;;;8.07;7.32;;;7.00;99.90;;;;;;4934685;29;20273;-24
2020/12/05 01:58:02;;;;;;;7.07;6.47;;;7.00;99.90;;;;;;4934204;29;20202;-24
2020/12/05 02:00:32;;;;;;;10.35;8.00;;;6.90;99.90;;;;;;4934275;29;20198;-23
2020/12/05 02:03:02;;;;;;;8.60;7.30;;;6.90;99.90;;;;;;4934262;29;20202;-24
2020/12/05 02:05:47;;;;;;;7.88;7.13;;;6.90;99.90;;;;;;4934152;29;20222;-25
2020/12/05 02:08:34;;;;;;;7.95;7.15;;;6.90;99.80;;;;;;4934513;29;20712;-24
2020/12/05 02:11:06;;;;;;;9.10;7.30;;;6.90;99.90;;;;;;4931334;29;20195;-25
2020/12/05 02:13:39;;;;;;;7.25;6.57;;;6.80;99.90;;;;;;4934223;29;20190;-24
2020/12/05 02:16:09;;;;;;;8.43;7.63;;;6.80;99.90;;;;;;4933814;29;20201;-25
2020/12/05 02:18:41;;;;;;;7.32;6.63;;;6.80;99.90;;;;;;4934003;29;20205;-24
2020/12/05 02:21:13;;;;;;;7.20;6.47;;;6.80;99.90;;;;;;4933973;29;20198;-25
2020/12/05 02:23:47;;;;;;;6.85;6.25;;;6.70;99.90;;;;;;4934471;29;20721;-25
2020/12/05 02:26:17;;;;;;;7.50;6.80;;;6.70;99.90;;;;;;4933595;29;20296;-24
2020/12/05 02:28:47;;;;;;;9.63;6.38;;;6.70;99.90;;;;;;4933801;29;20194;-25
2020/12/05 02:31:18;;;;;;;6.85;6.10;;;6.70;99.80;;;;;;4934021;29;20257;-25
2020/12/05 02:33:48;;;;;;;7.65;6.97;;;6.80;99.90;;;;;;4917801;29;20654;-25
2020/12/05 02:36:18;;;;;;;7.78;7.05;;;6.80;99.90;;;;;;4933951;29;20202;-25
2020/12/05 02:39:00;;;;;;;7.90;7.03;;;6.80;99.90;;;;;;4934030;29;20249;-25
2020/12/05 02:41:30;;;;;;;7.43;6.72;;;6.80;99.80;;;;;;4934147;29;20201;-25
2020/12/05 02:44:03;;;;;;;7.60;6.90;;;6.80;99.70;;;;;;4933491;29;20229;-25
2020/12/05 02:46:33;;;;;;;8.02;7.22;;;6.80;99.60;;;;;;4933656;29;20261;-25
2020/12/05 02:49:03;;;;;;;8.07;7.28;;;6.80;99.60;;;;;;4933753;29;20653;-24
2020/12/05 02:51:33;;;;;;;9.50;7.53;;;6.80;99.70;;;;;;4933521;29;20250;-24
2020/12/05 02:54:05;;;;;;;7.68;6.57;;;6.80;99.40;;;;;;4933463;29;20206;-23
2020/12/05 02:56:35;;;;;;;7.55;6.85;;;6.80;99.20;;;;;;4933773;29;20941;-24
2020/12/05 02:59:05;;;;;;;7.05;6.35;;;6.70;99.20;;;;;;4933450;29;20206;-24
2020/12/05 03:01:36;;;;;;;8.93;6.90;;;6.80;99.30;;;;;;4932482;29;20278;-23
2020/12/05 03:04:06;;;;;;;8.63;7.07;;;6.70;99.50;;;;;;4933055;29;20705;-24
2020/12/05 03:06:36;;;;;;;7.93;7.25;;;6.70;99.30;;;;;;4934093;29;20201;-24
2020/12/05 03:09:08;;;;;;;8.30;6.78;;;6.70;99.80;;;;;;4933743;29;20209;-24
2020/12/05 03:11:38;;;;;;;8.10;7.32;;;6.70;99.60;;;;;;4933424;29;20202;-24
2020/12/05 03:14:09;;;;;;;7.38;6.70;;;6.60;99.70;;;;;;4933115;29;20230;-23
2020/12/05 03:16:39;;;;;;;7.60;6.80;;;6.60;99.90;;;;;;4933720;29;20201;-23
2020/12/05 03:19:09;;;;;;;7.50;6.60;;;6.60;99.90;;;;;;4932859;29;20249;-23
2020/12/05 03:21:39;;;;;;;7.93;7.13;;;6.60;99.90;;;;;;4933661;29;20614;-23
2020/12/05 03:24:10;;;;;;;8.38;7.55;;;6.60;99.90;;;;;;4918811;29;20795;-24
2020/12/05 03:26:41;;;;;;;10.07;9.07;;;6.60;99.40;;;;;;4932659;29;20210;-23
2020/12/05 03:29:11;;;;;;;12.73;11.43;;;6.50;99.90;;;;;;4933075;29;20206;-23
2020/12/05 03:31:49;;;;;;;22.92;18.45;;;6.50;99.90;;;;;;4932855;29;20237;-24
2020/12/05 03:34:20;;;;;;;19.55;16.75;;;6.50;99.90;;;;;;4932440;29;20590;-23
2020/12/05 03:36:50;;;;;;;8.23;7.07;;;6.40;99.90;;;;;;4932169;29;20664;-24
2020/12/05 03:39:21;;;;;;;7.45;6.75;;;6.40;99.80;;;;;;4933283;29;20613;-24
2020/12/05 03:41:51;;;;;;;7.35;6.65;;;6.40;99.90;;;;;;4932799;29;20669;-23
2020/12/05 03:44:21;;;;;;;7.25;6.45;;;6.40;99.90;;;;;;4932059;29;20292;-24
2020/12/05 03:46:51;;;;;;;8.65;6.68;;;6.40;99.80;;;;;;4932260;29;20595;-24
2020/12/05 03:49:22;;;;;;;7.50;6.75;;;6.40;99.90;;;;;;4932455;29;20229;-24
2020/12/05 03:51:52;;;;;;;7.05;6.18;;;6.50;99.90;;;;;;4932783;29;20197;-24
2020/12/05 03:54:23;;;;;;;7.82;7.03;;;6.50;99.80;;;;;;4932379;29;20551;-24
2020/12/05 03:56:54;;;;;;;7.40;6.70;;;6.40;99.90;;;;;;4931786;29;20222;-24
2020/12/05 03:59:24;;;;;;;9.25;7.30;;;6.40;99.90;;;;;;4932141;29;20301;-24
2020/12/05 04:01:55;;;;;;;8.05;7.25;;;6.30;99.90;;;;;;4932402;29;20206;-23
2020/12/05 04:04:26;;;;;;;8.25;6.95;;;6.30;99.90;;;;;;4932561;29;20294;-24
2020/12/05 04:06:58;;;;;;;10.93;7.65;;;6.20;99.90;;;;;;4932779;29;20626;-23
2020/12/05 04:09:29;;;;;;;9.00;8.15;;;6.10;99.90;;;;;;4931788;29;20198;-23
2020/12/05 04:12:00;;;;;;;8.32;7.53;;;6.00;99.90;;;;;;4932370;29;20277;-23
2020/12/05 04:14:30;;;;;;;7.40;6.60;;;6.00;99.90;;;;;;4932045;29;20241;-24
2020/12/05 04:17:01;;;;;;;8.10;7.30;;;6.10;99.90;;;;;;4932845;29;20198;-24
2020/12/05 04:19:31;;;;;;;6.90;6.25;;;6.10;99.90;;;;;;4932264;29;20217;-23
2020/12/05 04:22:03;;;;;;;8.70;7.80;;;6.10;99.90;;;;;;4917705;29;20226;-24
2020/12/05 04:24:34;;;;;;;7.18;6.47;;;6.10;99.90;;;;;;4932104;29;20214;-23
2020/12/05 04:27:04;;;;;;;7.63;6.82;;;6.20;99.90;;;;;;4932230;29;20217;-24
2020/12/05 04:29:35;;;;;;;8.88;7.97;;;6.20;99.90;;;;;;4932183;29;20221;-25
2020/12/05 04:32:05;;;;;;;9.38;6.55;;;6.20;99.90;;;;;;4922505;29;20276;-24
2020/12/05 04:34:35;;;;;;;8.25;6.88;;;6.20;99.90;;;;;;4931005;29;20209;-24
2020/12/05 04:37:05;;;;;;;7.90;6.45;;;6.30;99.90;;;;;;4934865;29;20550;-25
2020/12/05 04:39:36;;;;;;;8.40;7.38;;;6.30;99.90;;;;;;4935907;29;20202;-25
2020/12/05 04:42:06;;;;;;;8.00;7.20;;;6.30;99.90;;;;;;4935932;29;20726;-25
2020/12/05 04:44:37;;;;;;;8.30;6.90;;;6.30;99.90;;;;;;4935383;29;20237;-25
2020/12/05 04:47:10;;;;;;;9.32;7.60;;;6.30;99.90;;;;;;4925757;29;20242;-24
2020/12/05 04:49:40;;;;;;;8.32;6.45;;;6.20;99.90;;;;;;4926203;29;20336;-23
2020/12/05 04:52:21;;;;;;;7.43;6.45;;;6.20;99.90;;;;;;4933684;29;20292;-23
2020/12/05 04:54:56;;;;;;;7.20;6.50;;;6.30;99.90;;;;;;4935144;29;20616;-24
2020/12/05 04:57:27;;;;;;;6.40;5.80;;;6.20;99.90;;;;;;4935909;29;20355;-24
2020/12/05 04:59:58;;;;;;;9.48;6.53;;;6.30;99.70;;;;;;4935288;29;20225;-23
2020/12/05 05:02:30;;;;;;;9.30;6.35;;;6.30;99.90;;;;;;4919567;29;20198;-23
2020/12/05 05:05:00;;;;;;;7.35;6.70;;;6.40;99.40;;;;;;4936165;29;20592;-23
2020/12/05 05:07:32;;;;;;;7.70;6.75;;;6.50;99.30;;;;;;4936621;29;20225;-24
2020/12/05 05:10:10;;;;;;;6.82;6.18;;;6.50;99.70;;;;;;4935116;29;20264;-23
2020/12/05 05:12:40;;;;;;;7.13;6.43;;;6.50;99.60;;;;;;4935893;29;20194;-24
2020/12/05 05:15:32;;;;;;;7.05;6.40;;;6.40;99.70;;;;;;4935448;29;20210;-23
2020/12/05 05:18:04;;;;;;;6.90;6.20;;;6.40;99.50;;;;;;4935618;29;20514;-24
2020/12/05 05:20:41;;;;;;;8.77;7.00;;;6.40;99.60;;;;;;4935648;29;20258;-24
2020/12/05 05:23:14;;;;;;;7.50;6.40;;;6.40;99.80;;;;;;4935931;29;20226;-25
2020/12/05 05:25:59;;;;;;;9.68;6.40;;;6.40;99.90;;;;;;4934789;29;20239;-24
2020/12/05 05:28:31;;;;;;;6.82;6.22;;;6.40;99.80;;;;;;4935163;29;20195;-23
2020/12/05 05:31:09;;;;;;;8.88;6.85;;;6.40;99.90;;;;;;4935112;29;20194;-23
2020/12/05 05:33:41;;;;;;;7.55;6.60;;;6.40;99.90;;;;;;4934229;29;20186;-23
2020/12/05 05:36:25;;;;;;;7.72;6.95;;;6.40;99.90;;;;;;4935495;29;20202;-23
2020/12/05 05:39:05;;;;;;;7.50;6.70;;;6.40;99.90;;;;;;4934137;29;20249;-23
2020/12/05 05:41:38;;;;;;;7.95;6.68;;;6.40;99.90;;;;;;4929852;29;20198;-24
2020/12/05 05:44:10;;;;;;;7.82;6.57;;;6.40;99.90;;;;;;4934807;29;20194;-24
2020/12/05 05:46:42;;;;;;;7.70;7.00;;;6.40;99.90;;;;;;4935097;29;20281;-24
2020/12/05 05:49:14;;;;;;;8.02;7.10;;;6.30;99.90;;;;;;4934485;29;20198;-24
2020/12/05 05:51:46;;;;;;;7.43;6.65;;;6.30;99.90;;;;;;4935212;29;20241;-25
2020/12/05 05:54:19;;;;;;;7.93;7.13;;;6.30;99.90;;;;;;4935186;29;20199;-24
2020/12/05 05:57:08;;;;;;;7.90;7.15;;;6.30;99.90;;;;;;4934911;29;20608;-24
2020/12/05 05:59:39;;;;;;;9.13;7.60;;;6.30;99.90;;;;;;4934468;29;20257;-24
2020/12/05 06:02:10;;;;;;;7.57;6.35;;;6.30;99.90;;;;;;4935413;29;20194;-24
2020/12/05 06:04:41;;;;;;;8.02;6.75;;;6.30;99.90;;;;;;4934423;29;20217;-32
2020/12/05 06:07:15;;;;;;;8.13;7.05;;;6.30;99.90;;;;;;4935160;29;20210;-24
2020/12/05 06:09:51;;;;;;;9.20;6.68;;;6.30;99.90;;;;;;4934801;29;20672;-24
2020/12/05 06:12:24;;;;;;;7.78;7.00;;;6.30;99.90;;;;;;4934249;29;20205;-24
2020/12/05 06:14:55;;;;;;;7.20;6.50;;;6.30;99.90;;;;;;4934225;29;20241;-24
2020/12/05 06:17:25;;;;;;;6.13;5.63;;;6.30;99.90;;;;;;4934617;29;20190;-23
2020/12/05 06:19:57;;;;;;;6.35;5.75;;;6.30;99.90;;;;;;4934751;29;20187;-23
2020/12/05 06:22:43;;;;;;;7.20;5.97;;;6.40;99.90;;;;;;4934119;29;20242;-23
2020/12/05 06:25:15;;;;;;;6.22;5.72;;;6.40;99.60;;;;;;4934262;29;20621;-24
2020/12/05 06:27:56;;;;;;;7.18;6.47;;;6.50;99.40;;;;;;4933871;29;20190;-23
2020/12/05 06:30:26;;;;;;;5.97;5.43;;;6.60;99.20;;;;;;4929899;29;20290;-23
2020/12/05 06:32:57;;;;;;;6.35;5.75;;;6.60;99.20;;;;;;4934173;29;20198;-24
2020/12/05 06:35:34;;;;;;;6.20;5.30;;;6.70;99.20;;;;;;4934276;29;20194;-24
2020/12/05 06:38:05;;;;;;;6.15;5.60;;;6.60;98.80;;;;;;4934096;29;20281;-24
2020/12/05 06:40:41;;;;;;;7.20;5.70;;;6.60;99.40;;;;;;4933722;29;20198;-24
2020/12/05 06:43:16;;;;;;;7.32;6.43;;;6.60;99.30;;;;;;4934140;29;20197;-23
2020/12/05 06:45:46;;;;;;;5.82;5.32;;;6.60;99.10;;;;;;4933886;29;20296;-23
2020/12/05 06:48:35;;;;;;;7.07;6.32;;;6.60;99.20;;;;;;4933612;29;20242;-24
2020/12/05 06:51:05;;;;;;;12.02;8.48;;;6.60;99.30;;;;;;4931760;29;20237;-24
2020/12/05 06:53:36;;;;;;;7.85;7.05;;;6.50;99.30;;;;;;4924941;29;20261;-24
2020/12/05 06:56:18;;;;;;;7.80;6.53;;;6.50;99.50;;;;;;4934142;29;20194;-24
2020/12/05 06:58:59;;;;;;;8.57;5.72;;;6.40;99.90;;;;;;4933266;29;20226;-23
2020/12/05 07:01:31;;;;;;;5.97;5.05;;;6.50;98.70;;;;;;4933298;29;20533;-23
2020/12/05 07:04:30;;;;;;;6.18;5.57;;;6.50;99.10;;;;;;4933235;29;20214;-23
2020/12/05 07:07:31;;;;;;;9.10;8.20;;;6.50;99.40;;;;;;4912376;29;20223;-23
2020/12/05 07:10:01;;;;;;;7.28;6.00;;;6.40;99.90;;;;;;4933222;29;20519;-23
2020/12/05 07:12:37;;;;;;;6.75;6.05;;;6.30;99.80;;;;;;4933366;29;20733;-22
2020/12/05 07:15:23;;;;;;;8.23;6.57;;;6.40;99.90;;;;;;4933327;29;20205;-24
2020/12/05 07:17:53;;;;;;;7.90;7.20;;;6.30;99.90;;;;;;4932948;29;20194;-24
2020/12/05 07:20:24;;;;;;;6.32;5.80;;;6.20;99.90;;;;;;4933617;29;20198;-24
2020/12/05 07:22:56;;;;;;;8.02;6.53;;;6.20;99.90;;;;;;4933430;29;20245;-23
2020/12/05 07:25:26;;;;;;;8.02;7.22;;;6.20;99.90;;;;;;4933579;29;20218;-23
2020/12/05 07:27:56;;;;;;;6.68;6.07;;;6.20;99.90;;;;;;4933704;29;20210;-23
2020/12/05 07:30:28;;;;;;;7.40;6.45;;;6.20;99.90;;;;;;4933280;29;20240;-23
2020/12/05 07:32:58;;;;;;;7.95;6.07;;;6.10;99.90;;;;;;4932822;29;20186;-23
2020/12/05 07:35:28;;;;;;;7.80;5.85;;;6.10;99.90;;;;;;4933109;29;20637;-23
2020/12/05 07:37:58;;;;;;;7.30;6.60;;;6.10;99.90;;;;;;4933487;29;20210;-23
2020/12/05 07:40:29;;;;;;;7.97;6.07;;;6.10;99.90;;;;;;4933056;29;20253;-24
2020/12/05 07:42:59;;;;;;;6.18;5.50;;;6.20;99.90;;;;;;4933158;29;20580;-24
2020/12/05 07:45:31;;;;;;;6.13;5.63;;;6.30;99.90;;;;;;4932528;29;20269;-23
2020/12/05 07:48:12;;;;;;;4.90;4.40;;;6.40;99.70;;;;;;4932641;29;20242;-23
2020/12/05 07:50:45;;;;;;;5.85;5.30;;;6.50;98.70;;;;;;4928317;29;20206;-24
2020/12/05 07:53:26;;;;;;;5.70;4.90;;;6.60;98.90;;;;;;4932540;29;20193;-24
2020/12/05 07:55:57;;;;;;;5.32;4.65;;;6.60;98.40;;;;;;4931776;29;20589;-24
2020/12/05 07:58:27;;;;;;;5.22;4.53;;;6.60;98.40;;;;;;4932312;29;20241;-24
2020/12/05 08:00:58;;;;;;;6.38;5.20;;;6.70;97.70;;;;;;4932164;29;20225;-24
2020/12/05 08:04:01;;;;;;;4.78;4.28;;;6.80;97.00;;;;;;4931866;29;20197;-24
2020/12/05 08:06:48;;;;;;;4.70;4.28;;;6.90;96.70;;;;;;4917082;29;20226;-24
2020/12/05 08:09:28;;;;;;;5.32;3.80;;;6.90;96.80;;;;;;4932520;29;20554;-24
2020/12/05 08:11:58;;;;;;;8.93;4.40;;;6.90;96.70;;;;;;4932317;29;20222;-24
2020/12/05 08:14:32;;;;;;;5.13;4.63;;;7.00;96.20;;;;;;4932157;29;20212;-24
2020/12/05 08:17:04;;;;;;;4.80;4.15;;;7.10;96.00;;;;;;4932408;29;20245;-24
2020/12/05 08:19:35;;;;;;;4.18;3.50;;;7.20;95.20;;;;;;4916317;29;20587;-24
2020/12/05 08:22:08;;;;;;;3.67;3.38;;;7.20;95.10;;;;;;4932571;29;20196;-23
2020/12/05 08:24:50;;;;;;;4.40;4.00;;;7.30;94.50;;;;;;4931903;29;20194;-24
2020/12/05 08:27:22;;;;;;;3.90;3.60;;;7.40;94.50;;;;;;4932071;29;20202;-24
2020/12/05 08:29:53;;;;;;;4.28;3.78;;;7.40;94.60;;;;;;4931644;29;20594;-23
2020/12/05 08:32:25;;;;;;;4.72;4.30;;;7.40;95.10;;;;;;4932043;29;20269;-23
2020/12/05 08:35:04;;;;;;;4.35;3.97;;;7.20;95.40;;;;;;4931462;29;20189;-24
2020/12/05 08:37:35;;;;;;;4.00;3.60;;;7.20;95.00;;;;;;4931900;29;20296;-24
2020/12/05 08:40:06;;;;;;;5.40;4.10;;;7.20;94.70;;;;;;4932116;29;20206;-24
2020/12/05 08:42:36;;;;;;;4.53;4.13;;;7.30;94.30;;;;;;4933051;29;20580;-24
2020/12/05 08:45:16;;;;;;;3.40;3.20;;;7.30;93.80;;;;;;4931368;29;20194;-23
2020/12/05 08:47:48;;;;;;;4.00;3.60;;;7.30;93.70;;;;;;4931492;29;20601;-23
2020/12/05 08:50:26;;;;;;;5.00;4.50;;;7.30;93.90;;;;;;4932454;29;20319;-23
2020/12/05 08:53:00;;;;;;;4.65;4.10;;;7.30;93.90;;;;;;4932288;29;20194;-23
2020/12/05 08:55:32;;;;;;;5.07;4.57;;;7.30;94.00;;;;;;4932190;29;20194;-23
2020/12/05 08:58:04;;;;;;;4.63;4.22;;;7.20;94.00;;;;;;4931757;29;20198;-23
2020/12/05 09:00:36;;;;;;;4.20;3.83;;;7.20;94.00;;;;;;4931524;29;20618;-23
2020/12/05 09:03:19;;;;;;;4.40;4.00;;;7.20;94.20;;;;;;4931398;29;20242;-23
2020/12/05 09:05:50;;;;;;;3.80;3.50;;;7.20;93.70;;;;;;4931487;29;20213;-23
2020/12/05 09:08:22;;;;;;;4.03;3.63;;;7.30;93.40;;;;;;4931956;29;20814;-23
2020/12/05 09:10:52;;;;;;;5.03;3.63;;;7.30;93.80;;;;;;4932108;29;20191;-23
2020/12/05 09:13:26;;;;;;;4.40;4.00;;;7.20;93.60;;;;;;4931885;29;20658;-23
2020/12/05 09:16:01;;;;;;;4.60;4.07;;;7.30;93.20;;;;;;4931026;29;20632;-23
2020/12/05 09:18:43;;;;;;;3.47;3.17;;;7.20;94.20;;;;;;4926577;29;20241;-23
2020/12/05 09:21:15;;;;;;;4.55;3.70;;;7.10;93.40;;;;;;4931625;29;20709;-23
2020/12/05 09:23:47;;;;;;;5.10;4.60;;;7.20;93.00;;;;;;4933449;29;20205;-23
2020/12/05 09:26:17;;;;;;;4.00;3.60;;;7.30;93.40;;;;;;4934502;29;20558;-23
2020/12/05 09:28:47;;;;;;;4.70;4.28;;;7.10;94.00;;;;;;4935083;29;20202;-23
2020/12/05 09:31:17;;;;;;;4.95;4.50;;;6.90;94.40;;;;;;4934948;29;20198;-23
2020/12/05 09:33:48;;;;;;;5.88;5.10;;;6.90;94.60;;;;;;4934269;29;20197;-24
2020/12/05 09:36:21;;;;;;;6.35;4.75;;;6.90;94.60;;;;;;4935257;29;20581;-24
2020/12/05 09:38:51;;;;;;;5.57;4.95;;;6.80;94.90;;;;;;4934790;29;20266;-24
2020/12/05 09:41:22;;;;;;;6.60;5.53;;;6.80;95.10;;;;;;4935098;29;20209;-24
2020/12/05 09:43:52;;;;;;;5.20;4.70;;;6.70;95.40;;;;;;4934666;29;20272;-23
2020/12/05 09:46:22;;;;;;;6.35;5.75;;;6.60;95.90;;;;;;4934104;29;20260;-23
2020/12/05 09:48:54;;;;;;;6.28;5.50;;;6.60;96.00;;;;;;4934279;29;20281;-24
2020/12/05 09:51:24;;;;;;;6.60;5.75;;;6.50;96.50;;;;;;4934870;29;21774;-24
2020/12/05 09:53:54;;;;;;;6.20;5.57;;;6.30;97.30;;;;;;4923207;29;20194;-24
2020/12/05 09:56:24;;;;;;;6.88;5.90;;;6.30;97.60;;;;;;4934250;29;20206;-32
2020/12/05 09:58:55;;;;;;;6.22;5.63;;;6.20;98.00;;;;;;4934760;29;20204;-23
2020/12/05 10:01:28;;;;;;;6.07;5.20;;;6.20;97.90;;;;;;4934608;29;20206;-23
2020/12/05 10:04:00;;;;;;;7.32;6.10;;;6.10;97.90;;;;;;4926342;29;20190;-23
2020/12/05 10:06:30;;;;;;;7.65;6.95;;;6.10;98.40;;;;;;4934796;29;20221;-23
2020/12/05 10:09:00;;;;;;;8.05;7.25;;;6.00;98.40;;;;;;4934565;29;20280;-23
2020/12/05 10:11:30;;;;;;;8.20;6.78;;;6.00;98.70;;;;;;4930705;29;20209;-23
2020/12/05 10:14:00;;;;;;;7.57;5.95;;;5.90;99.30;;;;;;4934183;29;20352;-23
2020/12/05 10:16:30;;;;;;;7.22;6.40;;;5.90;99.70;;;;;;4919431;29;20206;-23
2020/12/05 10:19:02;;;;;;;7.03;6.18;;;5.80;99.90;;;;;;4934073;29;20198;-23
2020/12/05 10:21:33;;;;;;;7.47;6.20;;;5.70;99.40;;;;;;4934279;29;20198;-23
2020/12/05 10:24:03;;;;;;;6.57;5.97;;;5.70;99.90;;;;;;4930713;29;20276;-23
2020/12/05 10:26:33;;;;;;;6.53;5.88;;;5.60;99.90;;;;;;4919046;29;20748;-23
2020/12/05 10:29:04;;;;;;;8.57;6.35;;;5.60;99.90;;;;;;4934020;29;20230;-23
2020/12/05 10:31:34;;;;;;;6.75;5.97;;;5.60;99.90;;;;;;4934366;29;20238;-23
2020/12/05 10:34:05;;;;;;;7.32;5.90;;;5.60;99.90;;;;;;4933588;29;20236;-23
2020/12/05 10:36:36;;;;;;;6.50;5.90;;;5.60;99.90;;;;;;4928854;29;20195;-23
2020/12/05 10:39:06;;;;;;;8.32;6.35;;;5.60;99.90;;;;;;4933154;29;20623;-23
2020/12/05 10:41:36;;;;;;;7.47;6.60;;;5.60;99.90;;;;;;4933736;29;20234;-24
2020/12/05 10:44:07;;;;;;;8.10;6.55;;;5.60;99.90;;;;;;4933969;29;20666;-23
2020/12/05 10:46:41;;;;;;;10.88;7.13;;;5.60;99.90;;;;;;4933785;29;20293;-24
2020/12/05 10:49:13;;;;;;;7.95;7.15;;;5.50;99.90;;;;;;4933295;29;20198;-23
2020/12/05 10:51:43;;;;;;;7.00;6.30;;;5.50;99.90;;;;;;4933760;29;20194;-24
2020/12/05 10:54:13;;;;;;;7.47;6.65;;;5.40;99.90;;;;;;4933068;29;20261;-23
2020/12/05 10:56:44;;;;;;;7.50;6.70;;;5.40;99.90;;;;;;4933594;29;20206;-23
2020/12/05 10:59:14;;;;;;;7.97;6.00;;;5.40;99.90;;;;;;4932764;29;20781;-23
2020/12/05 11:01:44;;;;;;;8.38;7.22;;;5.30;99.90;;;;;;4933611;29;20262;-23
2020/12/05 11:04:15;;;;;;;7.55;6.80;;;5.20;99.90;;;;;;4933193;29;20265;-23
2020/12/05 11:06:45;;;;;;;8.43;7.00;;;5.20;99.90;;;;;;4932986;29;20681;-23
2020/12/05 11:09:16;;;;;;;9.02;7.07;;;5.20;99.90;;;;;;4933130;29;20213;-23
2020/12/05 11:11:46;;;;;;;8.20;7.28;;;5.10;99.90;;;;;;4933289;29;20297;-23
2020/12/05 11:14:16;;;;;;;7.55;6.82;;;5.10;99.90;;;;;;4932656;29;20258;-24
2020/12/05 11:16:47;;;;;;;7.35;6.57;;;5.10;99.90;;;;;;4933524;29;20253;-23
2020/12/05 11:19:18;;;;;;;9.65;7.10;;;5.10;99.90;;;;;;4932881;29;20205;-23
2020/12/05 11:21:48;;;;;;;7.60;6.80;;;5.10;99.90;;;;;;4933747;29;20658;-24
2020/12/05 11:24:18;;;;;;;7.70;6.65;;;5.00;99.90;;;;;;4933132;29;20261;-24
2020/12/05 11:26:48;;;;;;;7.10;6.47;;;5.00;99.90;;;;;;4933301;29;20225;-23
2020/12/05 11:29:19;;;;;;;7.40;6.25;;;5.00;99.90;;;;;;4932935;29;20206;-23
2020/12/05 11:31:49;;;;;;;7.03;6.32;;;5.10;99.90;;;;;;4933362;29;20201;-24
2020/12/05 11:34:21;;;;;;;7.82;6.43;;;5.10;99.90;;;;;;4932858;29;20202;-23
2020/12/05 11:36:53;;;;;;;7.90;6.40;;;5.10;99.90;;;;;;4933275;29;20196;-23
2020/12/05 11:39:23;;;;;;;7.55;6.18;;;5.10;99.90;;;;;;4932952;29;20650;-24
2020/12/05 11:41:53;;;;;;;7.15;6.32;;;5.20;99.90;;;;;;4932806;29;20190;-29
2020/12/05 11:44:24;;;;;;;7.60;5.53;;;5.20;99.90;;;;;;4932090;29;20248;-23
2020/12/05 11:46:54;;;;;;;8.57;7.20;;;5.20;99.90;;;;;;4932087;29;20233;-22
2020/12/05 11:49:25;;;;;;;6.55;5.30;;;5.30;99.90;;;;;;4932730;29;20576;-23
2020/12/05 11:51:57;;;;;;;6.85;5.10;;;5.40;99.90;;;;;;4932705;29;20532;-23
2020/12/05 11:54:27;;;;;;;6.05;5.20;;;5.40;99.90;;;;;;4932544;29;20268;-23
2020/12/05 11:56:58;;;;;;;5.90;5.30;;;5.40;99.90;;;;;;4932971;29;20658;-23
2020/12/05 11:59:28;;;;;;;5.90;5.30;;;5.40;99.90;;;;;;4932663;29;20201;-23
2020/12/05 12:01:59;;;;;;;5.95;5.05;;;5.40;99.90;;;;;;4932426;29;20194;-23
2020/12/05 12:04:30;;;;;;;7.63;5.50;;;5.40;99.90;;;;;;4931789;29;20225;-24
2020/12/05 12:07:00;;;;;;;7.32;6.40;;;5.40;99.90;;;;;;4932748;29;20316;-24
2020/12/05 12:09:30;;;;;;;5.53;5.03;;;5.40;99.90;;;;;;4932163;29;20512;-24
2020/12/05 12:12:00;;;;;;;7.13;6.43;;;5.40;99.90;;;;;;4932123;29;20201;-23
2020/12/05 12:14:30;;;;;;;5.55;5.03;;;5.40;99.90;;;;;;4931771;29;20210;-24
2020/12/05 12:17:01;;;;;;;7.32;5.82;;;5.40;99.90;;;;;;4932412;29;20669;-23
2020/12/05 12:19:32;;;;;;;6.20;5.60;;;5.30;99.90;;;;;;4928202;29;20197;-24
2020/12/05 12:22:02;;;;;;;9.82;5.85;;;5.30;99.90;;;;;;4932607;29;20198;-23
2020/12/05 12:24:32;;;;;;;8.32;5.72;;;5.30;99.90;;;;;;4931656;29;20273;-24
2020/12/05 12:27:02;;;;;;;7.35;5.85;;;5.30;99.90;;;;;;4932348;29;20230;-24
2020/12/05 12:29:33;;;;;;;7.40;6.53;;;5.10;99.90;;;;;;4922387;29;20205;-24
2020/12/05 12:32:03;;;;;;;6.07;5.53;;;5.10;99.90;;;;;;4932995;29;20263;-24
2020/12/05 12:34:34;;;;;;;5.75;5.22;;;5.10;99.90;;;;;;4929106;29;20201;-24
2020/12/05 12:37:04;;;;;;;6.30;5.70;;;5.20;99.90;;;;;;4932122;29;20194;-24
2020/12/05 12:39:34;;;;;;;5.57;5.07;;;5.20;99.90;;;;;;4931912;29;20205;-24
2020/12/05 12:42:05;;;;;;;5.40;4.90;;;5.20;99.90;;;;;;4932478;29;20620;-24
2020/12/05 12:44:35;;;;;;;7.18;6.35;;;5.30;99.90;;;;;;4931662;29;20194;-23
2020/12/05 12:47:13;;;;;;;5.65;5.05;;;5.30;99.90;;;;;;4931463;29;20282;-22
2020/12/05 12:49:44;;;;;;;6.35;5.47;;;5.30;99.90;;;;;;4925588;29;20190;-23
2020/12/05 12:52:14;;;;;;;7.40;6.45;;;5.20;99.90;;;;;;4931888;29;20198;-23
2020/12/05 12:54:45;;;;;;;6.93;5.82;;;5.20;99.90;;;;;;4931604;29;20254;-23
2020/12/05 12:57:15;;;;;;;6.07;5.47;;;5.10;99.90;;;;;;4931409;29;20303;-23
2020/12/05 12:59:45;;;;;;;5.95;5.40;;;5.10;99.90;;;;;;4934614;29;20305;-23
2020/12/05 13:02:15;;;;;;;6.32;5.40;;;5.20;99.90;;;;;;4935354;29;20206;-23
2020/12/05 13:04:47;;;;;;;5.95;5.35;;;5.30;99.90;;;;;;4934966;29;20257;-23
2020/12/05 13:07:17;;;;;;;7.20;5.38;;;5.40;99.90;;;;;;4935762;29;20213;-23
2020/12/05 13:09:47;;;;;;;5.97;5.32;;;5.30;99.90;;;;;;4935196;29;20198;-23
2020/12/05 13:12:17;;;;;;;6.43;5.13;;;5.30;99.90;;;;;;4934700;29;20202;-23
2020/12/05 13:14:49;;;;;;;5.32;4.82;;;5.40;99.90;;;;;;4935160;29;20253;-22
2020/12/05 13:17:19;;;;;;;6.13;5.00;;;5.40;99.90;;;;;;4934830;29;20617;-23
2020/12/05 13:19:51;;;;;;;5.45;4.38;;;5.60;99.40;;;;;;4920691;29;20277;-23
2020/12/05 13:22:21;;;;;;;6.30;5.30;;;5.60;99.60;;;;;;4935845;29;20641;-22